sensor_id;sensor_type;location;lat;lon;timestamp;pressure;altitude;pressure_sealevel;temperature;humidity
38267;BME280;24063;51.794;19.578;2022-10-16T00:00:30;98564.29;;;12.94;91.89
38267;BME280;24063;51.794;19.578;2022-10-16T00:01:51;98564.19;;;12.93;92.08
38267;BME280;24063;51.794;19.578;2022-10-16T00:02:53;98562.58;;;12.90;92.20
38267;BME280;24063;51.794;19.578;2022-10-16T00:03:57;98564.48;;;12.91;92.17
38267;BME280;24063;51.794;19.578;2022-10-16T00:04:59;98562.88;;;12.90;92.21
38267;BME280;24063;51.794;19.578;2022-10-16T00:06:02;98566.98;;;12.90;92.35
38267;BME280;24063;51.794;19.578;2022-10-16T00:07:04;98571.92;;;12.90;92.44
38267;BME280;24063;51.794;19.578;2022-10-16T00:08:08;98570.59;;;12.89;92.48
38267;BME280;24063;51.794;19.578;2022-10-16T00:09:10;98574.49;;;12.89;92.60
38267;BME280;24063;51.794;19.578;2022-10-16T00:10:12;98576.89;;;12.88;92.65
38267;BME280;24063;51.794;19.578;2022-10-16T00:11:29;98579.02;;;12.87;92.68
38267;BME280;24063;51.794;19.578;2022-10-16T00:12:31;98580.83;;;12.86;92.76
38267;BME280;24063;51.794;19.578;2022-10-16T00:13:35;98580.24;;;12.85;92.91
38267;BME280;24063;51.794;19.578;2022-10-16T00:14:37;98581.55;;;12.84;92.93
38267;BME280;24063;51.794;19.578;2022-10-16T00:15:42;98583.73;;;12.83;93.08
38267;BME280;24063;51.794;19.578;2022-10-16T00:16:45;98580.60;;;12.81;93.15
38267;BME280;24063;51.794;19.578;2022-10-16T00:17:46;98578.98;;;12.80;93.24
38267;BME280;24063;51.794;19.578;2022-10-16T00:18:48;98578.02;;;12.79;93.30
38267;BME280;24063;51.794;19.578;2022-10-16T00:19:50;98576.09;;;12.78;93.44
38267;BME280;24063;51.794;19.578;2022-10-16T00:20:52;98578.30;;;12.79;93.61
38267;BME280;24063;51.794;19.578;2022-10-16T00:21:53;98577.56;;;12.78;93.53
38267;BME280;24063;51.794;19.578;2022-10-16T00:22:55;98576.91;;;12.78;93.59
38267;BME280;24063;51.794;19.578;2022-10-16T00:24:00;98581.25;;;12.78;93.67
38267;BME280;24063;51.794;19.578;2022-10-16T00:25:02;98580.18;;;12.77;93.68
38267;BME280;24063;51.794;19.578;2022-10-16T00:26:08;98576.02;;;12.76;93.72
38267;BME280;24063;51.794;19.578;2022-10-16T00:27:10;98574.29;;;12.75;93.80
38267;BME280;24063;51.794;19.578;2022-10-16T00:28:12;98574.75;;;12.72;93.91
38267;BME280;24063;51.794;19.578;2022-10-16T00:29:13;98576.95;;;12.69;93.99
38267;BME280;24063;51.794;19.578;2022-10-16T00:30:15;98571.93;;;12.66;94.10
38267;BME280;24063;51.794;19.578;2022-10-16T00:31:19;98576.73;;;12.65;94.16
38267;BME280;24063;51.794;19.578;2022-10-16T00:32:22;98572.85;;;12.63;94.25
38267;BME280;24063;51.794;19.578;2022-10-16T00:33:24;98573.92;;;12.60;94.37
38267;BME280;24063;51.794;19.578;2022-10-16T00:34:25;98569.25;;;12.56;94.56
38267;BME280;24063;51.794;19.578;2022-10-16T00:35:27;98573.79;;;12.53;94.72
38267;BME280;24063;51.794;19.578;2022-10-16T00:36:30;98574.08;;;12.51;94.93
38267;BME280;24063;51.794;19.578;2022-10-16T00:37:33;98571.51;;;12.48;95.12
38267;BME280;24063;51.794;19.578;2022-10-16T00:38:35;98571.15;;;12.45;95.27
38267;BME280;24063;51.794;19.578;2022-10-16T00:39:37;98573.08;;;12.43;95.40
38267;BME280;24063;51.794;19.578;2022-10-16T00:40:39;98572.66;;;12.42;95.55
38267;BME280;24063;51.794;19.578;2022-10-16T00:41:41;98572.46;;;12.39;95.74
38267;BME280;24063;51.794;19.578;2022-10-16T00:42:42;98571.46;;;12.37;95.83
38267;BME280;24063;51.794;19.578;2022-10-16T00:43:49;98577.23;;;12.36;96.00
38267;BME280;24063;51.794;19.578;2022-10-16T00:44:56;98576.13;;;12.33;96.13
38267;BME280;24063;51.794;19.578;2022-10-16T00:46:00;98576.84;;;12.30;96.30
38267;BME280;24063;51.794;19.578;2022-10-16T00:47:02;98580.13;;;12.26;96.51
38267;BME280;24063;51.794;19.578;2022-10-16T00:48:04;98583.04;;;12.25;96.71
38267;BME280;24063;51.794;19.578;2022-10-16T00:49:14;98583.96;;;12.22;96.91
38267;BME280;24063;51.794;19.578;2022-10-16T00:50:30;98582.21;;;12.20;97.13
38267;BME280;24063;51.794;19.578;2022-10-16T00:51:36;98584.45;;;12.17;97.31
38267;BME280;24063;51.794;19.578;2022-10-16T00:52:43;98582.27;;;12.15;97.61
38267;BME280;24063;51.794;19.578;2022-10-16T00:53:46;98582.27;;;12.12;97.77
38267;BME280;24063;51.794;19.578;2022-10-16T00:54:50;98581.48;;;12.11;98.02
38267;BME280;24063;51.794;19.578;2022-10-16T00:55:56;98585.83;;;12.11;98.16
38267;BME280;24063;51.794;19.578;2022-10-16T00:57:02;98587.45;;;12.08;98.40
38267;BME280;24063;51.794;19.578;2022-10-16T00:58:08;98584.00;;;12.08;98.51
38267;BME280;24063;51.794;19.578;2022-10-16T00:59:24;98585.63;;;12.07;98.66
38267;BME280;24063;51.794;19.578;2022-10-16T01:00:26;98585.75;;;12.06;98.75
38267;BME280;24063;51.794;19.578;2022-10-16T01:01:28;98585.39;;;12.04;98.87
38267;BME280;24063;51.794;19.578;2022-10-16T01:02:30;98583.73;;;12.01;98.90
38267;BME280;24063;51.794;19.578;2022-10-16T01:03:35;98585.58;;;12.01;99.29
38267;BME280;24063;51.794;19.578;2022-10-16T01:04:41;98591.11;;;12.00;99.39
38267;BME280;24063;51.794;19.578;2022-10-16T01:06:39;98588.27;;;11.98;99.63
38267;BME280;24063;51.794;19.578;2022-10-16T01:07:41;98590.83;;;11.96;99.81
38267;BME280;24063;51.794;19.578;2022-10-16T01:09:13;98591.61;;;11.93;99.97
38267;BME280;24063;51.794;19.578;2022-10-16T01:10:28;98594.48;;;11.90;100.00
38267;BME280;24063;51.794;19.578;2022-10-16T01:13:05;98603.13;;;11.86;100.00
38267;BME280;24063;51.794;19.578;2022-10-16T01:14:22;98606.11;;;11.85;100.00
38267;BME280;24063;51.794;19.578;2022-10-16T01:15:37;98605.25;;;11.84;100.00
38267;BME280;24063;51.794;19.578;2022-10-16T01:16:53;98607.86;;;11.82;100.00
38267;BME280;24063;51.794;19.578;2022-10-16T01:20:31;98600.64;;;11.78;100.00
38267;BME280;24063;51.794;19.578;2022-10-16T01:21:40;98599.45;;;11.77;100.00
38267;BME280;24063;51.794;19.578;2022-10-16T01:23:07;98598.50;;;11.75;100.00
38267;BME280;24063;51.794;19.578;2022-10-16T01:24:23;98595.75;;;11.72;100.00
38267;BME280;24063;51.794;19.578;2022-10-16T01:27:25;98598.44;;;11.67;100.00
38267;BME280;24063;51.794;19.578;2022-10-16T01:28:56;98596.94;;;11.65;100.00
38267;BME280;24063;51.794;19.578;2022-10-16T01:30:10;98594.20;;;11.62;100.00
38267;BME280;24063;51.794;19.578;2022-10-16T01:31:19;98592.66;;;11.59;100.00
38267;BME280;24063;51.794;19.578;2022-10-16T01:32:42;98592.39;;;11.58;100.00
38267;BME280;24063;51.794;19.578;2022-10-16T01:33:56;98596.08;;;11.57;100.00
38267;BME280;24063;51.794;19.578;2022-10-16T01:35:09;98596.89;;;11.56;100.00
38267;BME280;24063;51.794;19.578;2022-10-16T01:36:21;98595.67;;;11.54;100.00
38267;BME280;24063;51.794;19.578;2022-10-16T01:37:35;98597.21;;;11.52;100.00
38267;BME280;24063;51.794;19.578;2022-10-16T01:38:39;98593.25;;;11.50;100.00
38267;BME280;24063;51.794;19.578;2022-10-16T01:39:45;98592.23;;;11.48;100.00
38267;BME280;24063;51.794;19.578;2022-10-16T01:41:00;98588.52;;;11.47;100.00
38267;BME280;24063;51.794;19.578;2022-10-16T01:42:19;98590.77;;;11.43;100.00
38267;BME280;24063;51.794;19.578;2022-10-16T01:43:47;98590.73;;;11.41;100.00
38267;BME280;24063;51.794;19.578;2022-10-16T01:44:52;98592.92;;;11.38;100.00
38267;BME280;24063;51.794;19.578;2022-10-16T01:45:55;98590.70;;;11.36;100.00
38267;BME280;24063;51.794;19.578;2022-10-16T01:46:57;98591.31;;;11.34;100.00
38267;BME280;24063;51.794;19.578;2022-10-16T01:48:02;98593.38;;;11.32;100.00
38267;BME280;24063;51.794;19.578;2022-10-16T01:49:09;98597.33;;;11.31;100.00
38267;BME280;24063;51.794;19.578;2022-10-16T01:50:15;98595.88;;;11.29;100.00
38267;BME280;24063;51.794;19.578;2022-10-16T01:51:20;98600.77;;;11.27;100.00
38267;BME280;24063;51.794;19.578;2022-10-16T01:52:26;98599.52;;;11.27;100.00
38267;BME280;24063;51.794;19.578;2022-10-16T01:53:31;98604.45;;;11.26;100.00
38267;BME280;24063;51.794;19.578;2022-10-16T01:54:37;98600.14;;;11.26;100.00
38267;BME280;24063;51.794;19.578;2022-10-16T01:55:46;98605.81;;;11.25;100.00
38267;BME280;24063;51.794;19.578;2022-10-16T01:56:50;98604.36;;;11.24;100.00
38267;BME280;24063;51.794;19.578;2022-10-16T01:57:54;98607.06;;;11.23;100.00
38267;BME280;24063;51.794;19.578;2022-10-16T01:59:05;98606.31;;;11.21;100.00
38267;BME280;24063;51.794;19.578;2022-10-16T02:00:12;98604.48;;;11.21;100.00
38267;BME280;24063;51.794;19.578;2022-10-16T02:01:19;98608.66;;;11.20;100.00
38267;BME280;24063;51.794;19.578;2022-10-16T02:02:22;98611.20;;;11.19;100.00
38267;BME280;24063;51.794;19.578;2022-10-16T02:03:25;98612.94;;;11.19;100.00
38267;BME280;24063;51.794;19.578;2022-10-16T02:04:32;98613.96;;;11.18;100.00
38267;BME280;24063;51.794;19.578;2022-10-16T02:05:48;98615.21;;;11.17;100.00
38267;BME280;24063;51.794;19.578;2022-10-16T02:06:52;98618.58;;;11.17;100.00
38267;BME280;24063;51.794;19.578;2022-10-16T02:07:54;98615.50;;;11.15;100.00
38267;BME280;24063;51.794;19.578;2022-10-16T02:08:56;98615.23;;;11.15;100.00
38267;BME280;24063;51.794;19.578;2022-10-16T02:10:00;98619.12;;;11.15;100.00
38267;BME280;24063;51.794;19.578;2022-10-16T02:11:02;98619.02;;;11.15;100.00
38267;BME280;24063;51.794;19.578;2022-10-16T02:12:19;98620.04;;;11.14;100.00
38267;BME280;24063;51.794;19.578;2022-10-16T02:14:29;98619.55;;;11.15;100.00
38267;BME280;24063;51.794;19.578;2022-10-16T02:15:31;98619.06;;;11.14;100.00
38267;BME280;24063;51.794;19.578;2022-10-16T02:16:40;98625.35;;;11.13;100.00
38267;BME280;24063;51.794;19.578;2022-10-16T02:17:45;98625.14;;;11.12;100.00
38267;BME280;24063;51.794;19.578;2022-10-16T02:18:47;98625.04;;;11.10;100.00
38267;BME280;24063;51.794;19.578;2022-10-16T02:19:52;98625.75;;;11.09;100.00
38267;BME280;24063;51.794;19.578;2022-10-16T02:22:05;98623.91;;;11.07;100.00
38267;BME280;24063;51.794;19.578;2022-10-16T02:23:19;98625.98;;;11.06;100.00
38267;BME280;24063;51.794;19.578;2022-10-16T02:24:51;98624.80;;;11.05;100.00
38267;BME280;24063;51.794;19.578;2022-10-16T02:25:58;98625.77;;;11.04;100.00
38267;BME280;24063;51.794;19.578;2022-10-16T02:28:35;98624.59;;;11.03;100.00
38267;BME280;24063;51.794;19.578;2022-10-16T02:29:43;98626.48;;;11.04;100.00
38267;BME280;24063;51.794;19.578;2022-10-16T02:31:04;98628.95;;;11.04;100.00
38267;BME280;24063;51.794;19.578;2022-10-16T02:32:12;98626.09;;;11.04;100.00
38267;BME280;24063;51.794;19.578;2022-10-16T02:33:20;98632.43;;;11.03;100.00
38267;BME280;24063;51.794;19.578;2022-10-16T02:34:25;98631.25;;;11.01;100.00
38267;BME280;24063;51.794;19.578;2022-10-16T02:35:31;98633.41;;;11.01;100.00
38267;BME280;24063;51.794;19.578;2022-10-16T02:36:35;98633.64;;;11.00;100.00
38267;BME280;24063;51.794;19.578;2022-10-16T02:37:40;98633.69;;;10.97;100.00
38267;BME280;24063;51.794;19.578;2022-10-16T02:38:42;98635.10;;;10.95;100.00
38267;BME280;24063;51.794;19.578;2022-10-16T02:39:44;98634.14;;;10.95;100.00
38267;BME280;24063;51.794;19.578;2022-10-16T02:40:46;98633.65;;;10.95;100.00
38267;BME280;24063;51.794;19.578;2022-10-16T02:41:48;98633.39;;;10.94;100.00
38267;BME280;24063;51.794;19.578;2022-10-16T02:42:52;98634.73;;;10.94;100.00
38267;BME280;24063;51.794;19.578;2022-10-16T02:43:54;98634.83;;;10.96;100.00
38267;BME280;24063;51.794;19.578;2022-10-16T02:44:56;98638.09;;;10.97;100.00
38267;BME280;24063;51.794;19.578;2022-10-16T02:45:58;98636.23;;;10.97;100.00
38267;BME280;24063;51.794;19.578;2022-10-16T02:47:00;98636.73;;;10.96;100.00
38267;BME280;24063;51.794;19.578;2022-10-16T02:48:02;98637.54;;;10.96;100.00
38267;BME280;24063;51.794;19.578;2022-10-16T02:49:04;98634.68;;;10.94;100.00
38267;BME280;24063;51.794;19.578;2022-10-16T02:50:06;98633.88;;;10.93;100.00
38267;BME280;24063;51.794;19.578;2022-10-16T02:51:08;98633.60;;;10.92;100.00
38267;BME280;24063;51.794;19.578;2022-10-16T02:52:10;98636.48;;;10.90;100.00
38267;BME280;24063;51.794;19.578;2022-10-16T02:53:11;98635.62;;;10.89;100.00
38267;BME280;24063;51.794;19.578;2022-10-16T02:54:13;98639.67;;;10.87;100.00
38267;BME280;24063;51.794;19.578;2022-10-16T02:55:15;98635.52;;;10.85;100.00
38267;BME280;24063;51.794;19.578;2022-10-16T02:56:16;98635.41;;;10.85;100.00
38267;BME280;24063;51.794;19.578;2022-10-16T02:57:23;98637.32;;;10.84;100.00
38267;BME280;24063;51.794;19.578;2022-10-16T02:58:25;98635.86;;;10.83;100.00
38267;BME280;24063;51.794;19.578;2022-10-16T02:59:27;98639.80;;;10.83;100.00
38267;BME280;24063;51.794;19.578;2022-10-16T03:00:29;98638.52;;;10.84;100.00
38267;BME280;24063;51.794;19.578;2022-10-16T03:01:30;98641.22;;;10.84;100.00
38267;BME280;24063;51.794;19.578;2022-10-16T03:02:32;98634.83;;;10.83;100.00
38267;BME280;24063;51.794;19.578;2022-10-16T03:03:34;98637.55;;;10.82;100.00
38267;BME280;24063;51.794;19.578;2022-10-16T03:04:36;98639.55;;;10.80;100.00
38267;BME280;24063;51.794;19.578;2022-10-16T03:05:43;98640.04;;;10.77;100.00
38267;BME280;24063;51.794;19.578;2022-10-16T03:06:47;98644.42;;;10.76;100.00
38267;BME280;24063;51.794;19.578;2022-10-16T03:07:48;98641.77;;;10.74;100.00
38267;BME280;24063;51.794;19.578;2022-10-16T03:08:50;98641.58;;;10.74;100.00
38267;BME280;24063;51.794;19.578;2022-10-16T03:09:52;98642.60;;;10.73;100.00
38267;BME280;24063;51.794;19.578;2022-10-16T03:10:53;98640.33;;;10.72;100.00
38267;BME280;24063;51.794;19.578;2022-10-16T03:11:55;98642.98;;;10.72;100.00
38267;BME280;24063;51.794;19.578;2022-10-16T03:12:57;98647.03;;;10.72;100.00
38267;BME280;24063;51.794;19.578;2022-10-16T03:13:58;98646.28;;;10.71;100.00
38267;BME280;24063;51.794;19.578;2022-10-16T03:15:00;98647.04;;;10.70;100.00
38267;BME280;24063;51.794;19.578;2022-10-16T03:16:02;98650.27;;;10.70;100.00
38267;BME280;24063;51.794;19.578;2022-10-16T03:17:04;98646.98;;;10.68;100.00
38267;BME280;24063;51.794;19.578;2022-10-16T03:18:05;98649.52;;;10.68;100.00
38267;BME280;24063;51.794;19.578;2022-10-16T03:19:07;98652.11;;;10.69;100.00
38267;BME280;24063;51.794;19.578;2022-10-16T03:20:09;98650.98;;;10.69;100.00
38267;BME280;24063;51.794;19.578;2022-10-16T03:21:11;98649.80;;;10.69;100.00
38267;BME280;24063;51.794;19.578;2022-10-16T03:22:13;98653.73;;;10.69;100.00
38267;BME280;24063;51.794;19.578;2022-10-16T03:23:14;98653.00;;;10.68;100.00
38267;BME280;24063;51.794;19.578;2022-10-16T03:24:16;98655.05;;;10.67;100.00
38267;BME280;24063;51.794;19.578;2022-10-16T03:25:18;98657.91;;;10.69;100.00
38267;BME280;24063;51.794;19.578;2022-10-16T03:26:19;98660.71;;;10.69;100.00
38267;BME280;24063;51.794;19.578;2022-10-16T03:27:21;98661.64;;;10.69;100.00
38267;BME280;24063;51.794;19.578;2022-10-16T03:28:23;98661.52;;;10.70;100.00
38267;BME280;24063;51.794;19.578;2022-10-16T03:29:24;98664.02;;;10.70;100.00
38267;BME280;24063;51.794;19.578;2022-10-16T03:30:27;98661.58;;;10.69;100.00
38267;BME280;24063;51.794;19.578;2022-10-16T03:31:30;98663.26;;;10.70;100.00
38267;BME280;24063;51.794;19.578;2022-10-16T03:32:31;98663.30;;;10.71;100.00
38267;BME280;24063;51.794;19.578;2022-10-16T03:33:33;98664.77;;;10.72;100.00
38267;BME280;24063;51.794;19.578;2022-10-16T03:34:35;98664.18;;;10.73;100.00
38267;BME280;24063;51.794;19.578;2022-10-16T03:35:37;98662.83;;;10.74;100.00
38267;BME280;24063;51.794;19.578;2022-10-16T03:36:39;98663.58;;;10.73;100.00
38267;BME280;24063;51.794;19.578;2022-10-16T03:37:40;98665.46;;;10.74;100.00
38267;BME280;24063;51.794;19.578;2022-10-16T03:38:42;98662.27;;;10.75;100.00
38267;BME280;24063;51.794;19.578;2022-10-16T03:39:44;98662.60;;;10.75;100.00
38267;BME280;24063;51.794;19.578;2022-10-16T03:40:45;98663.95;;;10.75;100.00
38267;BME280;24063;51.794;19.578;2022-10-16T03:41:47;98665.14;;;10.76;100.00
38267;BME280;24063;51.794;19.578;2022-10-16T03:42:49;98669.14;;;10.77;100.00
38267;BME280;24063;51.794;19.578;2022-10-16T03:43:50;98667.08;;;10.76;100.00
38267;BME280;24063;51.794;19.578;2022-10-16T03:44:52;98668.21;;;10.77;100.00
38267;BME280;24063;51.794;19.578;2022-10-16T03:45:54;98668.91;;;10.78;100.00
38267;BME280;24063;51.794;19.578;2022-10-16T03:46:55;98667.56;;;10.80;100.00
38267;BME280;24063;51.794;19.578;2022-10-16T03:47:57;98664.59;;;10.80;100.00
38267;BME280;24063;51.794;19.578;2022-10-16T03:48:59;98665.89;;;10.81;100.00
38267;BME280;24063;51.794;19.578;2022-10-16T03:50:00;98666.69;;;10.81;100.00
38267;BME280;24063;51.794;19.578;2022-10-16T03:51:02;98667.17;;;10.82;100.00
38267;BME280;24063;51.794;19.578;2022-10-16T03:52:04;98663.61;;;10.82;100.00
38267;BME280;24063;51.794;19.578;2022-10-16T03:53:06;98666.64;;;10.82;100.00
38267;BME280;24063;51.794;19.578;2022-10-16T03:54:09;98666.20;;;10.81;100.00
38267;BME280;24063;51.794;19.578;2022-10-16T03:55:11;98664.73;;;10.81;100.00
38267;BME280;24063;51.794;19.578;2022-10-16T03:56:13;98661.71;;;10.81;100.00
38267;BME280;24063;51.794;19.578;2022-10-16T03:57:14;98662.36;;;10.81;100.00
38267;BME280;24063;51.794;19.578;2022-10-16T03:58:17;98661.88;;;10.81;100.00
38267;BME280;24063;51.794;19.578;2022-10-16T03:59:18;98664.09;;;10.81;100.00
38267;BME280;24063;51.794;19.578;2022-10-16T04:00:20;98660.75;;;10.81;100.00
38267;BME280;24063;51.794;19.578;2022-10-16T04:01:22;98661.29;;;10.81;100.00
38267;BME280;24063;51.794;19.578;2022-10-16T04:02:23;98660.91;;;10.81;100.00
38267;BME280;24063;51.794;19.578;2022-10-16T04:03:25;98661.40;;;10.80;100.00
38267;BME280;24063;51.794;19.578;2022-10-16T04:04:27;98660.91;;;10.77;100.00
38267;BME280;24063;51.794;19.578;2022-10-16T04:05:28;98663.45;;;10.76;100.00
38267;BME280;24063;51.794;19.578;2022-10-16T04:06:30;98662.43;;;10.75;100.00
38267;BME280;24063;51.794;19.578;2022-10-16T04:07:32;98662.77;;;10.75;100.00
38267;BME280;24063;51.794;19.578;2022-10-16T04:08:33;98660.52;;;10.74;100.00
38267;BME280;24063;51.794;19.578;2022-10-16T04:09:38;98660.10;;;10.75;100.00
38267;BME280;24063;51.794;19.578;2022-10-16T04:10:42;98657.12;;;10.74;100.00
38267;BME280;24063;51.794;19.578;2022-10-16T04:11:44;98657.56;;;10.74;100.00
38267;BME280;24063;51.794;19.578;2022-10-16T04:12:46;98659.83;;;10.74;100.00
38267;BME280;24063;51.794;19.578;2022-10-16T04:13:48;98658.70;;;10.74;100.00
38267;BME280;24063;51.794;19.578;2022-10-16T04:14:50;98660.21;;;10.76;100.00
38267;BME280;24063;51.794;19.578;2022-10-16T04:15:51;98661.89;;;10.77;100.00
38267;BME280;24063;51.794;19.578;2022-10-16T04:16:53;98661.99;;;10.76;100.00
38267;BME280;24063;51.794;19.578;2022-10-16T04:17:54;98662.33;;;10.75;100.00
38267;BME280;24063;51.794;19.578;2022-10-16T04:18:56;98662.33;;;10.75;100.00
38267;BME280;24063;51.794;19.578;2022-10-16T04:19:58;98663.56;;;10.75;100.00
38267;BME280;24063;51.794;19.578;2022-10-16T04:21:04;98661.45;;;10.75;100.00
38267;BME280;24063;51.794;19.578;2022-10-16T04:22:06;98665.08;;;10.75;100.00
38267;BME280;24063;51.794;19.578;2022-10-16T04:23:08;98664.91;;;10.76;100.00
38267;BME280;24063;51.794;19.578;2022-10-16T04:24:10;98667.79;;;10.77;100.00
38267;BME280;24063;51.794;19.578;2022-10-16T04:25:12;98670.05;;;10.78;100.00
38267;BME280;24063;51.794;19.578;2022-10-16T04:26:14;98673.03;;;10.80;100.00
38267;BME280;24063;51.794;19.578;2022-10-16T04:27:16;98672.89;;;10.82;100.00
38267;BME280;24063;51.794;19.578;2022-10-16T04:28:18;98676.08;;;10.84;100.00
38267;BME280;24063;51.794;19.578;2022-10-16T04:29:20;98678.73;;;10.87;100.00
38267;BME280;24063;51.794;19.578;2022-10-16T04:30:22;98683.31;;;10.88;100.00
38267;BME280;24063;51.794;19.578;2022-10-16T04:31:24;98684.58;;;10.90;100.00
38267;BME280;24063;51.794;19.578;2022-10-16T04:32:26;98688.23;;;10.92;100.00
38267;BME280;24063;51.794;19.578;2022-10-16T04:33:28;98686.14;;;10.94;100.00
38267;BME280;24063;51.794;19.578;2022-10-16T04:34:30;98682.49;;;10.96;100.00
38267;BME280;24063;51.794;19.578;2022-10-16T04:35:32;98681.78;;;10.98;100.00
38267;BME280;24063;51.794;19.578;2022-10-16T04:36:33;98680.65;;;10.99;100.00
38267;BME280;24063;51.794;19.578;2022-10-16T04:37:35;98681.34;;;11.01;100.00
38267;BME280;24063;51.794;19.578;2022-10-16T04:38:37;98679.60;;;11.03;100.00
38267;BME280;24063;51.794;19.578;2022-10-16T04:39:40;98680.40;;;11.04;100.00
38267;BME280;24063;51.794;19.578;2022-10-16T04:40:42;98681.97;;;11.05;100.00
38267;BME280;24063;51.794;19.578;2022-10-16T04:41:44;98685.65;;;11.04;100.00
38267;BME280;24063;51.794;19.578;2022-10-16T04:42:46;98684.89;;;11.05;100.00
38267;BME280;24063;51.794;19.578;2022-10-16T04:43:47;98687.59;;;11.05;100.00
38267;BME280;24063;51.794;19.578;2022-10-16T04:44:51;98686.95;;;11.05;100.00
38267;BME280;24063;51.794;19.578;2022-10-16T04:45:52;98691.21;;;11.07;100.00
38267;BME280;24063;51.794;19.578;2022-10-16T04:46:56;98694.41;;;11.07;100.00
38267;BME280;24063;51.794;19.578;2022-10-16T04:47:59;98698.41;;;11.07;100.00
38267;BME280;24063;51.794;19.578;2022-10-16T04:49:00;98702.19;;;11.09;100.00
38267;BME280;24063;51.794;19.578;2022-10-16T04:50:03;98703.27;;;11.10;100.00
38267;BME280;24063;51.794;19.578;2022-10-16T04:51:04;98703.85;;;11.11;100.00
38267;BME280;24063;51.794;19.578;2022-10-16T04:52:06;98701.09;;;11.14;100.00
38267;BME280;24063;51.794;19.578;2022-10-16T04:53:08;98700.48;;;11.16;100.00
38267;BME280;24063;51.794;19.578;2022-10-16T04:54:10;98700.91;;;11.18;100.00
38267;BME280;24063;51.794;19.578;2022-10-16T04:55:12;98697.71;;;11.21;100.00
38267;BME280;24063;51.794;19.578;2022-10-16T04:56:13;98698.45;;;11.22;100.00
38267;BME280;24063;51.794;19.578;2022-10-16T04:57:17;98700.30;;;11.22;100.00
38267;BME280;24063;51.794;19.578;2022-10-16T04:58:19;98699.75;;;11.23;100.00
38267;BME280;24063;51.794;19.578;2022-10-16T04:59:23;98697.16;;;11.23;100.00
38267;BME280;24063;51.794;19.578;2022-10-16T05:00:24;98697.48;;;11.24;100.00
38267;BME280;24063;51.794;19.578;2022-10-16T05:01:26;98699.63;;;11.25;100.00
38267;BME280;24063;51.794;19.578;2022-10-16T05:02:28;98702.51;;;11.26;100.00
38267;BME280;24063;51.794;19.578;2022-10-16T05:03:29;98705.73;;;11.27;100.00
38267;BME280;24063;51.794;19.578;2022-10-16T05:04:36;98706.39;;;11.28;100.00
38267;BME280;24063;51.794;19.578;2022-10-16T05:05:42;98704.70;;;11.30;100.00
38267;BME280;24063;51.794;19.578;2022-10-16T05:06:44;98702.70;;;11.32;100.00
38267;BME280;24063;51.794;19.578;2022-10-16T05:07:47;98705.39;;;11.35;100.00
38267;BME280;24063;51.794;19.578;2022-10-16T05:08:49;98702.89;;;11.38;100.00
38267;BME280;24063;51.794;19.578;2022-10-16T05:09:51;98699.73;;;11.40;100.00
38267;BME280;24063;51.794;19.578;2022-10-16T05:10:53;98694.80;;;11.43;100.00
38267;BME280;24063;51.794;19.578;2022-10-16T05:11:54;98692.62;;;11.45;100.00
38267;BME280;24063;51.794;19.578;2022-10-16T05:12:56;98693.48;;;11.47;100.00
38267;BME280;24063;51.794;19.578;2022-10-16T05:13:58;98694.55;;;11.48;100.00
38267;BME280;24063;51.794;19.578;2022-10-16T05:15:00;98693.20;;;11.48;100.00
38267;BME280;24063;51.794;19.578;2022-10-16T05:16:02;98697.14;;;11.50;100.00
38267;BME280;24063;51.794;19.578;2022-10-16T05:17:03;98698.48;;;11.53;100.00
38267;BME280;24063;51.794;19.578;2022-10-16T05:18:05;98693.55;;;11.55;100.00
38267;BME280;24063;51.794;19.578;2022-10-16T05:19:07;98687.90;;;11.57;100.00
38267;BME280;24063;51.794;19.578;2022-10-16T05:20:28;98686.44;;;11.59;100.00
38267;BME280;24063;51.794;19.578;2022-10-16T05:21:30;98691.57;;;11.60;100.00
38267;BME280;24063;51.794;19.578;2022-10-16T05:22:32;98695.20;;;11.60;100.00
38267;BME280;24063;51.794;19.578;2022-10-16T05:23:34;98691.50;;;11.62;100.00
38267;BME280;24063;51.794;19.578;2022-10-16T05:24:35;98694.75;;;11.64;100.00
38267;BME280;24063;51.794;19.578;2022-10-16T05:25:37;98693.44;;;11.64;100.00
38267;BME280;24063;51.794;19.578;2022-10-16T05:26:42;98693.96;;;11.65;100.00
38267;BME280;24063;51.794;19.578;2022-10-16T05:27:47;98694.08;;;11.66;100.00
38267;BME280;24063;51.794;19.578;2022-10-16T05:28:50;98695.20;;;11.67;100.00
38267;BME280;24063;51.794;19.578;2022-10-16T05:29:51;98692.61;;;11.67;100.00
38267;BME280;24063;51.794;19.578;2022-10-16T05:30:53;98700.71;;;11.71;100.00
38267;BME280;24063;51.794;19.578;2022-10-16T05:31:55;98699.55;;;11.74;100.00
38267;BME280;24063;51.794;19.578;2022-10-16T05:32:57;98696.61;;;11.76;100.00
38267;BME280;24063;51.794;19.578;2022-10-16T05:33:59;98695.64;;;11.76;100.00
38267;BME280;24063;51.794;19.578;2022-10-16T05:35:01;98704.74;;;11.77;100.00
38267;BME280;24063;51.794;19.578;2022-10-16T05:36:08;98703.06;;;11.78;100.00
38267;BME280;24063;51.794;19.578;2022-10-16T05:37:11;98707.61;;;11.78;100.00
38267;BME280;24063;51.794;19.578;2022-10-16T05:38:13;98704.46;;;11.78;100.00
38267;BME280;24063;51.794;19.578;2022-10-16T05:39:15;98704.45;;;11.79;100.00
38267;BME280;24063;51.794;19.578;2022-10-16T05:40:17;98704.33;;;11.81;100.00
38267;BME280;24063;51.794;19.578;2022-10-16T05:41:19;98703.14;;;11.80;100.00
38267;BME280;24063;51.794;19.578;2022-10-16T05:42:23;98702.07;;;11.80;100.00
38267;BME280;24063;51.794;19.578;2022-10-16T05:43:24;98700.98;;;11.79;100.00